• Join FlightAware (Why Join?)
  • Login
  • US Flag 
11:20AM EDT


 

Airport Tracker/Info


-or-


 

Live Flight TrackerFlight Track Log ✈ BJS444 ✈ 21-Apr-2013 ✈ KOXC - KCHS

Flight Track Log - Related Links

Times and Time Zones

All times are in EDT time to prevent confusion due to time zone crossing. See the BJS444 flight status page for this flight to view local times or setup timezone preferences in your user account.

Time Position Orientation Groundspeed Altitude Reporting Facility
EDT Latitude Longitude Course Direction KTS MPH feet Rate Location/Type
09:38AM 41.4667 -73.1833 161° South 216 249 3,900  Level New York TRACON
09:39AM 41.4269 -73.1656 161° South 234 269 4,200 1,800 Climbing Boston Center
09:41AM 41.3417 -73.1314 163° South 261 300 7,700 1,920 Climbing Boston Center
09:42AM 41.2650 -73.0531 142° Southeast 288 331 8,900 600 Climbing Boston Center
09:43AM 41.1967 -72.9892 145° Southeast 293 337 9,000 360 Climbing Boston Center
09:44AM 41.1303 -72.9222 143° Southeast 298 343 9,700 480 Climbing Boston Center
09:45AM 41.0597 -72.8558 145° Southeast 304 350 10,000 900 Climbing Boston Center
09:46AM 40.9828 -72.7864 146° Southeast 316 364 11,700 3,000 Climbing Boston Center
09:47AM 40.8808 -72.6872 144° Southeast 358 412 16,700 4,440 Climbing Boston Center
09:48AM 40.7850 -72.6894 181° South 333 383 20,600 4,080 Climbing Boston Center
09:49AM 40.7056 -72.7658 216° Southwest 325 374 24,900 3,600 Climbing Boston Center
09:50AM 40.6344 -72.8447 220° Southwest 321 369 27,900 2,700 Climbing Boston Center
09:51AM 40.5758 -72.9072 219° Southwest 333 383 30,300 3,000 Climbing Boston Center
09:52AM 40.4881 -72.9967 218° Southwest 338 389 33,900 2,760 Climbing Boston Center
09:53AM 40.4147 -73.0697 217° Southwest 343 395 35,900 1,800 Climbing Boston Center
09:54AM 40.3475 -73.1453 221° Southwest 338 389 37,600 1,140 Climbing Boston Center
09:56AM 40.2122 -73.2933 220° Southwest 330 380 39,400 780 Climbing Washington Center
09:57AM 40.1347 -73.3744 219° Southwest 348 400 40,100 660 Climbing Washington Center
09:58AM 40.0486 -73.4639 219° Southwest 359 413 40,800 660 Climbing Washington Center
09:59AM 39.9669 -73.5478 218° Southwest 364 419 41,500 660 Climbing Washington Center
10:00AM 39.8850 -73.6339 219° Southwest 369 425 42,200 600 Climbing Washington Center
10:01AM 39.8072 -73.7142 218° Southwest 369 425 42,700 360 Climbing Washington Center
10:02AM 39.7272 -73.7972 219° Southwest 369 425 43,000 120 Climbing Washington Center
10:03AM 39.6469 -73.8803 219° Southwest 369 425 43,000  Level Washington Center
10:04AM 39.5753 -73.9519 218° Southwest 369 425 43,000  Level Washington Center
10:05AM 39.4928 -74.0344 218° Southwest 369 425 43,000  Level Washington Center
10:06AM 39.4128 -74.1169 219° Southwest 375 432 43,000  Level Washington Center
10:07AM 39.3261 -74.2044 218° Southwest 380 437 43,000  Level Washington Center
10:08AM 39.2458 -74.2864 218° Southwest 380 437 43,000  Level Washington Center
10:09AM 39.1675 -74.3681 219° Southwest 380 437 43,000  Level Washington Center
10:10AM 39.0850 -74.4497 218° Southwest 380 437 43,000  Level Washington Center
10:11AM 39.0022 -74.5339 218° Southwest 380 437 43,000  Level Washington Center
10:12AM 38.9197 -74.6178 218° Southwest 380 437 43,000  Level Washington Center
10:13AM 38.8369 -74.6989 217° Southwest 385 443 43,000  Level Washington Center
10:14AM 38.7583 -74.7797 219° Southwest 385 443 43,000  Level Washington Center
10:15AM 38.6733 -74.8578 216° Southwest 385 443 43,000  Level Washington Center
10:16AM 38.5925 -74.9408 219° Southwest 385 443 43,000  Level Washington Center
10:17AM 38.5094 -75.0214 217° Southwest 385 443 43,000  Level Washington Center
10:18AM 38.4264 -75.1042 218° Southwest 385 443 43,000  Level Washington Center
10:19AM 38.3433 -75.1867 218° Southwest 390 449 43,000  Level Washington Center
10:20AM 38.2539 -75.2822 220° Southwest 390 449 43,000  Level Washington Center
10:21AM 38.1686 -75.3619 216° Southwest 390 449 43,000  Level Washington Center
10:22AM 38.0833 -75.4467 218° Southwest 390 449 43,000  Level Washington Center
10:23AM 37.9917 -75.5153 211° Southwest 390 449 43,000  Level Washington Center
10:24AM 37.9000 -75.5892 212° Southwest 390 449 43,000  Level Washington Center
10:25AM 37.8061 -75.6550 209° Southwest 395 455 43,000  Level Washington Center
10:26AM 37.7142 -75.7256 211° Southwest 395 455 43,000  Level Washington Center
10:27AM 37.6244 -75.7964 212° Southwest 390 449 43,000  Level Washington Center
10:28AM 37.5325 -75.8642 210° Southwest 384 442 43,000  Level Washington Center
10:29AM 37.4322 -75.9161 202° Southwest 384 442 43,000  Level Washington Center
10:30AM 37.3342 -75.9706 204° Southwest 384 442 43,000  Level Washington Center
10:31AM 37.2381 -76.0222 203° Southwest 384 442 43,000  Level Washington Center
10:32AM 37.1378 -76.0739 202° Southwest 384 442 43,000  Level Washington Center
10:33AM 37.0436 -76.1281 205° Southwest 384 442 43,000  Level Washington Center
10:34AM 36.9475 -76.1689 199° South 389 448 43,000  Level Washington Center
10:35AM 36.8533 -76.2306 208° Southwest 389 448 43,000 -540 Level Washington Center
10:36AM 36.7694 -76.3103 217° Southwest 389 448 42,000 -1,080 Descending Washington Center
10:37AM 36.6750 -76.4000 217° Southwest 389 448 40,900 -1,020 Descending Washington Center
10:38AM 36.5908 -76.4767 216° Southwest 389 448 40,000 -480 Descending Washington Center
10:39AM 36.5069 -76.5533 216° Southwest 389 448 40,000  Level Washington Center
10:40AM 36.4269 -76.6219 215° Southwest 374 430 40,000 -420 Level Washington Center
10:41AM 36.3472 -76.6958 217° Southwest 364 419 39,200 -1,140 Descending Washington Center
10:42AM 36.2631 -76.7692 215° Southwest 364 419 37,800 -1,380 Descending Washington Center
10:43AM 36.1808 -76.8425 216° Southwest 369 425 36,500 -900 Descending Washington Center
10:44AM 36.0944 -76.9183 215° Southwest 369 425 36,000 -300 Descending Washington Center
10:45AM 36.0081 -76.9939 215° Southwest 374 430 36,000  Level Washington Center
10:46AM 35.9217 -77.0694 215° Southwest 384 442 36,000  Level Washington Center
10:47AM 35.8519 -77.1372 218° Southwest 377 434 36,000  Level Washington Center
10:48AM 35.7694 -77.2100 216° Southwest 372 428 36,000 -600 Level Washington Center
10:49AM 35.6831 -77.2850 215° Southwest 372 428 34,800 -1,380 Descending Washington Center
10:50AM 35.5983 -77.3597 216° Southwest 377 434 33,300 -1,560 Descending Washington Center
10:51AM 35.5075 -77.4394 216° Southwest 392 451 31,700 -1,500 Descending Washington Center
10:52AM 35.4167 -77.5189 215° Southwest 397 457 30,400 -900 Descending Washington Center
10:53AM 35.3297 -77.6033 218° Southwest 397 457 30,000 -240 Descending Washington Center
10:54AM 35.2425 -77.6900 219° Southwest 402 463 30,000  Level Washington Center
10:55AM 35.1597 -77.7794 221° Southwest 402 463 30,000  Level Washington Center
10:56AM 35.0744 -77.8658 220° Southwest 402 463 30,000  Level Washington Center
10:57AM 34.9853 -77.9547 219° Southwest 407 468 30,000  Level Washington Center
10:58AM 34.8956 -78.0483 221° Southwest 407 468 30,000  Level Washington Center
10:59AM 34.8103 -78.1344 220° Southwest 407 468 30,000  Level Washington Center
11:01AM 34.6300 -78.3258 221° Southwest 396 456 30,000 -420 Level Jacksonville Center
11:02AM 34.5472 -78.4083 219° Southwest 396 456 28,800 -1,020 Descending Jacksonville Center
11:03AM 34.4628 -78.4933 220° Southwest 396 456 28,000 -420 Descending Jacksonville Center
11:04AM 34.3742 -78.5833 220° Southwest 411 473 28,000  Level Jacksonville Center
11:05AM 34.3056 -78.6519 220° Southwest 416 479 28,000 -540 Level Jacksonville Center
11:06AM 34.2069 -78.7622 223° Southwest 416 479 27,000 -1,500 Descending Jacksonville Center
11:07AM 34.1225 -78.8592 224° Southwest 416 479 25,000 -1,500 Descending Jacksonville Center
11:08AM 34.0400 -78.9531 223° Southwest 416 479 24,000 -1,080 Descending Jacksonville Center
11:09AM 33.9611 -79.0417 223° Southwest 411 473 22,900 -1,500 Descending Jacksonville Center
11:10AM 33.8806 -79.1328 223° Southwest 411 473 21,100 -1,800 Descending Jacksonville Center
11:11AM 33.7978 -79.2264 223° Southwest 411 473 19,300 -1,740 Descending Jacksonville Center
11:12AM 33.7039 -79.3028 214° Southwest 392 451 17,700 -1,800 Descending Jacksonville Center
11:13AM 33.6139 -79.3686 211° Southwest 382 440 15,800 -1,860 Descending Jacksonville Center
11:14AM 33.5239 -79.4344 211° Southwest 382 440 14,000 -1,800 Descending Jacksonville Center
11:15AM 33.4403 -79.5000 213° Southwest 382 440 12,200 -1,500 Descending Jacksonville Center
11:16AM 33.3583 -79.5628 213° Southwest 371 427 11,100 -720 Descending Jacksonville Center
11:17AM 33.2828 -79.6178 211° Southwest 353 406 10,800 -900 Descending Jacksonville Center
11:18AM 33.2128 -79.6650 209° Southwest 313 360 9,400 -1,500 Descending Jacksonville Center
11:19AM 33.1408 -79.7000 202° Southwest 289 333 7,900 -1,500 Descending Jacksonville Center
11:20AM 33.0728 -79.7319 201° Southwest 277 319 6,400 -1,500 Descending Jacksonville Center
11:21AM 33.0067 -79.7667 204° Southwest 271 312 4,900 -1,140 Descending Jacksonville Center
11:22AM 32.9264 -79.8139 206° Southwest 271 312 4,000 -420 Descending Jacksonville Center
11:23AM 32.8586 -79.8508 205° Southwest 271 312 4,000 -480 Level Jacksonville Center
11:24AM 32.8161 -79.9142 231° Southwest 246 283 3,100 -900 Descending Jacksonville Center
11:26AM 32.8833 -80.0333 348° North  Level FlightAware Approximate
11:33AM 32.8986 -80.0405 348° North  Level Estimated
11:34AM 32.8986 -80.0405 348° North  Level Estimated
11:35AM 32.8986 -80.0405 348° North  Level Estimated
11:36AM 32.8986 -80.0405 348° North  Level Estimated
11:37AM 32.8986 -80.0405 348° North  Level Estimated
11:38AM 32.8986 -80.0405 348° North  Level Estimated